KAFW/AFW METAR and TAF weather

Enter ICAO airport designator
Station Type Date Time Source
KAFW METAR 2021/03/01 03:53 UTC NOAA

KAFW 010353Z 35006KT 10SM FEW095 OVC250 10/04 A3003 RMK AO2 SLP165 T01000044 $


Station Type Date Time Source
KAFW Decoded METAR 2021/03/01 03:53 UTC NOAA

FORT WORTH ALLIANCE AIRPORT, TX, United States (KAFW) 32-59N 097-19W 233M
Feb 28, 2021 - 10:53 PM EST / 2021.03.01 0353 UTC
Wind: from the N (350 degrees) at 7 MPH (6 KT):0
Visibility: 10 mile(s):0
Sky conditions: overcast
Temperature: 50.0 F (10.0 C)
Dew Point: 39.9 F (4.4 C)
Relative Humidity: 68%
Pressure (altimeter): 30.03 in. Hg (1016 hPa)
ob: KAFW 010353Z 35006KT 10SM FEW095 OVC250 10/04 A3003 RMK AO2 SLP165 T01000044
cycle: 4

Station Type Date Time Source
KAFW TAF 2021/03/01 03:06 UTC NOAA

TAF
AMD KAFW 010304Z 0103/0124 36016KT P6SM VCSH SCT040 BKN070
FM010400 36017KT P6SM BKN070 OVC180
FM010800 01016KT P6SM VCSH SCT080 OVC100
FM011400 02015KT P6SM SCT080 BKN120
FM012300 02011KT P6SM -SHRA BKN035 OVC070

Example: see airport list